Flight Track Log - Related Links

Times and Time Zones

All times are in EDT time to prevent confusion due to time zone crossing. See the UAL33 flight status page for this flight to view local times or setup timezone preferences in your user account.

Time Position Orientation Groundspeed Altitude Reporting Facility
EDT Latitude Longitude Course Direction KTS MPH feet Rate Location/Type
Fri 06:26:33 AM 35.6646 140.4477 149° Southeast 231 266 3,800  Level FlightAware ADS-B
Fri 06:26:56 AM 35.6422 140.4639 149° Southeast 249 287 4,400 1,770 Climbing FlightAware ADS-B
Fri 06:27:34 AM 35.6003 140.4937 150° Southeast 284 327 5,600 2,172 Climbing FlightAware ADS-B
Fri 06:27:54 AM 35.5772 140.5103 149° Southeast 284 327 6,500 2,780 Climbing FlightAware ADS-B
Fri 06:28:15 AM 35.5521 140.5282 149° Southeast 286 329 7,500 2,300 Climbing FlightAware ADS-B
Fri 06:28:54 AM 35.5241 140.5795 94° East 295 339 8,800 1,322 Climbing FlightAware ADS-B
Fri 06:29:14 AM 35.5222 140.6120 94° East 296 341 8,800 150 Level FlightAware ADS-B
Fri 06:29:34 AM 35.5203 140.6460 94° East 296 341 8,900  Climbing FlightAware ADS-B
Fri 06:29:54 AM 35.5186 140.6771 94° East 295 339 8,800 -146 Descending FlightAware ADS-B
Fri 06:30:15 AM 35.5164 140.7141 94° East 296 341 8,800  Level FlightAware ADS-B
Fri 06:30:54 AM 35.5123 140.7787 93° East 294 338 8,800  Level FlightAware ADS-B
Fri 06:31:14 AM 35.5102 140.8113 93° East 293 337 8,800 150 Level FlightAware ADS-B
Fri 06:31:34 AM 35.5080 140.8463 93° East 295 339 8,900 1,200 Climbing FlightAware ADS-B
Fri 06:31:54 AM 35.5059 140.8799 93° East 296 341 9,600 1,575 Climbing FlightAware ADS-B
Fri 06:32:54 AM 35.5000 140.9863 90° East 346 398 11,000 1,425 Climbing FlightAware ADS-B
Fri 06:33:14 AM 35.5037 141.0271 79° East 365 420 11,500 1,279 Climbing FlightAware ADS-B
Fri 06:33:55 AM 35.5182 141.1145 80° East 403 464 12,300 1,367 Climbing FlightAware ADS-B
Fri 06:34:33 AM 35.5330 141.2063 79° East 435 501 13,300 1,980 Climbing FlightAware ADS-B
Fri 06:35:35 AM 35.5576 141.3584 80° East 451 519 15,600 2,139 Climbing FlightAware ADS-B
Fri 06:36:14 AM 35.5732 141.4557 80° East 465 535 16,900 1,875 Climbing FlightAware ADS-B
Fri 06:36:55 AM 35.5902 141.5626 80° East 477 549 18,100 1,857 Climbing FlightAware ADS-B
Fri 06:37:38 AM 35.6093 141.6832 80° East 490 564 19,500 1,752 Climbing FlightAware ADS-B
Fri 06:38:48 AM 35.6399 141.8785 80° East 506 582 21,400 1,655 Climbing FlightAware ADS-B
Fri 06:39:34 AM 35.6598 142.0067 79° East 513 590 22,700 1,615 Climbing FlightAware ADS-B
Fri 06:40:06 AM 35.6746 142.1025 79° East 513 590 23,500 1,459 Climbing FlightAware ADS-B
Fri 06:40:48 AM 35.6932 142.2245 79° East 526 605 24,500 1,426 Climbing FlightAware ADS-B
Fri 06:42:08 AM 35.7293 142.4613 80° East 543 625 26,400 89 Climbing FlightAware ADS-B
Fri 06:44:00 AM 35.8742 142.7383 57° Northeast  Level Estimated
Fri 06:45:00 AM 35.9516 142.8871 57° Northeast  Level Estimated
Fri 06:46:00 AM 36.0288 143.0362 57° Northeast  Level Estimated
Fri 06:47:00 AM 36.1058 143.1856 57° Northeast  Level Estimated
Fri 06:48:00 AM 36.1827 143.3353 58° Northeast  Level Estimated
Fri 06:49:00 AM 36.2593 143.4853 58° Northeast  Level Estimated
Fri 06:50:00 AM 36.3358 143.6355 58° Northeast  Level Estimated
Fri 06:51:00 AM 36.4121 143.7861 58° Northeast  Level Estimated
Fri 06:52:00 AM 36.4881 143.9370 58° Northeast  Level Estimated
Fri 06:53:00 AM 36.5640 144.0881 58° Northeast  Level Estimated
Fri 06:54:00 AM 36.6397 144.2396 58° Northeast  Level Estimated
Fri 06:55:00 AM 36.7152 144.3913 58° Northeast  Level Estimated
Fri 06:56:00 AM 36.7906 144.5434 58° Northeast  Level Estimated
Fri 06:57:00 AM 36.8657 144.6957 58° Northeast  Level Estimated
Fri 06:58:00 AM 36.9406 144.8484 58° Northeast  Level Estimated
Fri 06:59:00 AM 37.0154 145.0013 59° Northeast  Level Estimated
Fri 07:00:00 AM 37.0899 145.1546 59° Northeast  Level Estimated
Fri 07:01:00 AM 37.1642 145.3081 59° Northeast  Level Estimated
Fri 07:02:00 AM 37.2384 145.4620 59° Northeast  Level Estimated
Fri 07:03:00 AM 37.3123 145.6161 59° Northeast  Level Estimated
Fri 07:04:00 AM 37.3861 145.7706 59° Northeast  Level Estimated
Fri 07:05:00 AM 37.4596 145.9253 59° Northeast  Level Estimated
Fri 07:06:00 AM 37.5329 146.0804 59° Northeast  Level Estimated
Fri 07:07:00 AM 37.6061 146.2358 59° Northeast  Level Estimated
Fri 07:08:00 AM 37.6790 146.3914 59° Northeast  Level Estimated
Fri 07:09:00 AM 37.7517 146.5474 59° Northeast  Level Estimated
Fri 07:10:00 AM 37.8242 146.7037 60° Northeast  Level Estimated
Fri 07:11:00 AM 37.8965 146.8603 60° Northeast  Level Estimated
Fri 07:12:00 AM 37.9687 147.0172 60° Northeast  Level Estimated
Fri 07:13:00 AM 38.0406 147.1744 60° Northeast  Level Estimated
Fri 07:14:00 AM 38.1122 147.3319 60° Northeast  Level Estimated
Fri 07:15:00 AM 38.1837 147.4898 60° Northeast  Level Estimated
Fri 07:16:00 AM 38.2550 147.6479 60° Northeast  Level Estimated
Fri 07:17:00 AM 38.3260 147.8063 60° Northeast  Level Estimated
Fri 07:18:00 AM 38.3969 147.9651 60° Northeast  Level Estimated
Fri 07:19:00 AM 38.4675 148.1242 60° Northeast  Level Estimated
Fri 07:20:00 AM 38.5379 148.2836 61° Northeast  Level Estimated
Fri 07:21:00 AM 38.6081 148.4432 61° Northeast  Level Estimated
Fri 07:22:00 AM 38.6781 148.6032 61° Northeast  Level Estimated
Fri 07:23:00 AM 38.7478 148.7636 61° Northeast  Level Estimated
Fri 07:24:00 AM 38.8173 148.9242 61° Northeast  Level Estimated
Fri 07:25:00 AM 38.8867 149.0851 61° Northeast  Level Estimated
Fri 07:26:00 AM 38.9558 149.2464 61° Northeast  Level Estimated
Fri 07:27:00 AM 39.0248 149.4082 61° Northeast  Level Estimated
Fri 07:28:00 AM 39.0935 149.5704 61° Northeast  Level Estimated
Fri 07:29:00 AM 39.1621 149.7329 61° Northeast  Level Estimated
Fri 07:30:00 AM 39.2304 149.8957 62° Northeast  Level Estimated
Fri 07:31:00 AM 39.2985 150.0589 62° Northeast  Level Estimated
Fri 07:32:00 AM 39.3663 150.2223 62° Northeast  Level Estimated
Fri 07:33:00 AM 39.4340 150.3861 62° Northeast  Level Estimated
Fri 07:34:00 AM 39.5014 150.5501 62° Northeast  Level Estimated
Fri 07:35:00 AM 39.5686 150.7145 62° Northeast  Level Estimated
Fri 07:36:00 AM 39.6355 150.8793 62° Northeast  Level Estimated
Fri 07:37:00 AM 39.7022 151.0443 62° Northeast  Level Estimated
Fri 07:38:00 AM 39.7687 151.2096 62° Northeast  Level Estimated
Fri 07:39:00 AM 39.8349 151.3753 62° Northeast  Level Estimated
Fri 07:40:00 AM 39.9009 151.5413 63° Northeast  Level Estimated
Fri 07:41:00 AM 39.9667 151.7076 63° Northeast  Level Estimated
Fri 07:42:00 AM 40.0322 151.8742 63° Northeast  Level Estimated
Fri 07:43:00 AM 40.0975 152.0412 63° Northeast  Level Estimated
Fri 07:44:00 AM 40.1626 152.2085 63° Northeast  Level Estimated
Fri 07:45:00 AM 40.2274 152.3761 63° Northeast  Level Estimated
Fri 07:46:00 AM 40.2920 152.5440 63° Northeast  Level Estimated
Fri 07:47:00 AM 40.3563 152.7122 63° Northeast  Level Estimated
Fri 07:48:00 AM 40.4203 152.8808 63° Northeast  Level Estimated
Fri 07:49:00 AM 40.4842 153.0496 64° Northeast  Level Estimated
Fri 07:50:00 AM 40.5478 153.2188 64° Northeast  Level Estimated
Fri 07:51:00 AM 40.6111 153.3883 64° Northeast  Level Estimated
Fri 07:52:00 AM 40.6742 153.5582 64° Northeast  Level Estimated
Fri 07:53:00 AM 40.7370 153.7283 64° Northeast  Level Estimated
Fri 07:54:00 AM 40.7996 153.8988 64° Northeast  Level Estimated
Fri 07:55:00 AM 40.8620 154.0696 64° Northeast  Level Estimated
Fri 07:56:00 AM 40.9241 154.2407 64° Northeast  Level Estimated
Fri 07:57:00 AM 40.9859 154.4122 64° Northeast  Level Estimated
Fri 07:58:00 AM 41.0475 154.5839 65° Northeast  Level Estimated
Fri 07:59:00 AM 41.1088 154.7560 65° Northeast  Level Estimated
Fri 08:00:00 AM 41.1699 154.9284 65° Northeast  Level Estimated
Fri 08:01:00 AM 41.2307 155.1011 65° Northeast  Level Estimated
Fri 08:02:00 AM 41.2912 155.2742 65° Northeast  Level Estimated
Fri 08:03:00 AM 41.3515 155.4476 65° Northeast  Level Estimated
Fri 08:04:00 AM 41.4116 155.6212 65° Northeast  Level Estimated
Fri 08:05:00 AM 41.4713 155.7953 65° Northeast  Level Estimated
Fri 08:06:00 AM 41.5308 155.9696 65° Northeast  Level Estimated
Fri 08:07:00 AM 41.5901 156.1442 66° East  Level Estimated
Fri 08:08:00 AM 41.6491 156.3192 66° East  Level Estimated
Fri 08:09:00 AM 41.7078 156.4945 66° East  Level Estimated
Fri 08:10:00 AM 41.7662 156.6701 66° East  Level Estimated
Fri 08:11:00 AM 41.8244 156.8460 66° East  Level Estimated
Fri 08:12:00 AM 41.8823 157.0223 66° East  Level Estimated
Fri 08:13:00 AM 41.9400 157.1989 66° East  Level Estimated
Fri 08:14:00 AM 41.9973 157.3757 66° East  Level Estimated
Fri 08:15:00 AM 42.0544 157.5529 66° East  Level Estimated
Fri 08:16:00 AM 42.1113 157.7305 67° East  Level Estimated
Fri 08:17:00 AM 42.1678 157.9083 67° East  Level Estimated
Fri 08:18:00 AM 42.2241 158.0865 67° East  Level Estimated
Fri 08:19:00 AM 42.2801 158.2649 67° East  Level Estimated
Fri 08:20:00 AM 42.3358 158.4437 67° East  Level Estimated
Fri 08:21:00 AM 42.3912 158.6228 67° East  Level Estimated
Fri 08:22:00 AM 42.4466 158.8029 67° East  Level Estimated
Fri 08:23:00 AM 42.5017 158.9833 67° East  Level Estimated
Fri 08:24:00 AM 42.5565 159.1640 68° East  Level Estimated
Fri 08:25:00 AM 42.6110 159.3450 68° East  Level Estimated
Fri 08:26:00 AM 42.6652 159.5264 68° East  Level Estimated
Fri 08:27:00 AM 42.7192 159.7080 68° East  Level Estimated
Fri 08:28:00 AM 42.7728 159.8900 68° East  Level Estimated
Fri 08:29:00 AM 42.8262 160.0723 68° East  Level Estimated
Fri 08:30:00 AM 42.8792 160.2549 68° East  Level Estimated
Fri 08:31:00 AM 42.9320 160.4378 68° East  Level Estimated
Fri 08:32:00 AM 42.9845 160.6210 69° East  Level Estimated
Fri 08:33:00 AM 43.0367 160.8046 69° East  Level Estimated
Fri 08:34:00 AM 43.0886 160.9884 69° East  Level Estimated
Fri 08:35:00 AM 43.1402 161.1726 69° East  Level Estimated
Fri 08:36:00 AM 43.1916 161.3571 69° East  Level Estimated
Fri 08:37:00 AM 43.2426 161.5418 69° East  Level Estimated
Fri 08:38:00 AM 43.2933 161.7269 69° East  Level Estimated
Fri 08:39:00 AM 43.3437 161.9123 69° East  Level Estimated
Fri 08:40:00 AM 43.3938 162.0980 70° East  Level Estimated
Fri 08:41:00 AM 43.4436 162.2840 70° East  Level Estimated
Fri 08:42:00 AM 43.4932 162.4704 70° East  Level Estimated
Fri 08:43:00 AM 43.5424 162.6570 70° East  Level Estimated
Fri 08:44:00 AM 43.5913 162.8439 70° East  Level Estimated
Fri 08:45:00 AM 43.6399 163.0311 70° East  Level Estimated
Fri 08:46:00 AM 43.6882 163.2187 70° East  Level Estimated
Fri 08:47:00 AM 43.7362 163.4065 70° East  Level Estimated
Fri 08:48:00 AM 43.7839 163.5946 71° East  Level Estimated
Fri 08:49:00 AM 43.8312 163.7831 71° East  Level Estimated
Fri 08:50:00 AM 43.8783 163.9718 71° East  Level Estimated
Fri 08:51:00 AM 43.9251 164.1608 71° East  Level Estimated
Fri 08:52:00 AM 43.9715 164.3502 71° East  Level Estimated
Fri 08:53:00 AM 44.0176 164.5398 71° East  Level Estimated
Fri 08:54:00 AM 44.0634 164.7297 71° East  Level Estimated
Fri 08:55:00 AM 44.1090 164.9199 72° East  Level Estimated
Fri 08:56:00 AM 44.1541 165.1104 72° East  Level Estimated
Fri 08:57:00 AM 44.1990 165.3012 72° East  Level Estimated
Fri 08:58:00 AM 44.2435 165.4923 72° East  Level Estimated
Fri 08:59:00 AM 44.2878 165.6836 72° East  Level Estimated
Fri 09:00:00 AM 44.3317 165.8753 72° East  Level Estimated
Fri 09:00:38 AM 41.4500 167.8667 70° East 614 707 37,000  Level Oakland Oceanic (ODAPS)
Fri 09:10:38 AM 42.0000 170.0000 71° East 609 701 37,000  Level Oakland Oceanic (ODAPS)
Fri 09:14:12 AM 42.2167 170.8833 72° East 606 697 37,000  Level Oakland Oceanic (ODAPS)
Fri 09:28:05 AM 42.9167 173.9500 74° East 609 701 37,000  Level Oakland Oceanic (ODAPS)
Fri 09:42:06 AM 43.5167 177.0833 76° East 610 702 37,000  Level Oakland Oceanic (ODAPS)
Fri 09:54:51 AM 44.0000 180.0000 79° East 593 682 37,000  Level Oakland Oceanic (ODAPS)
Fri 09:55:49 AM 44.0333 -179.7833 79° East 590 679 37,000  Level Oakland Oceanic (ODAPS)
Fri 10:09:40 AM 44.4333 -176.6500 81° East 585 673 37,000  Level Oakland Oceanic (ODAPS)
Fri 10:23:32 AM 44.7500 -173.5500 83° East 580 667 37,000  Level Oakland Oceanic (ODAPS)
Fri 10:37:24 AM 44.9667 -170.4500 84° East 578 665 37,000  Level Oakland Oceanic (ODAPS)
Fri 10:39:26 AM 45.0000 -170.0000 94° East 570 656 37,000  Level Oakland Oceanic (ODAPS)
Fri 10:51:16 AM 44.8167 -167.3500 96° East 568 654 37,000  Level Oakland Oceanic (ODAPS)
Fri 11:05:08 AM 44.5333 -164.3000 98° East 567 652 37,000 Level Oakland Oceanic (ODAPS)
Fri 11:19:00 AM 44.1833 -161.2667 101° East 568 654 37,100 50 Climbing Oakland Oceanic (ODAPS)
Fri 11:25:08 AM 44.0000 -160.0000 94° East 546 628 38,000 65 Climbing Oakland Oceanic (ODAPS)
Fri 11:32:52 AM 43.9000 -158.3833 96° East 542 624 38,000  Level Oakland Oceanic (ODAPS)
Fri 11:46:44 AM 43.6667 -155.5167 98° East 544 626 38,000  Level Oakland Oceanic (ODAPS)
Fri 12:00:36 PM 43.3500 -152.6667 99° East 540 621 38,000  Level Oakland Oceanic (ODAPS)
Fri 12:13:49 PM 43.0000 -150.0000 102° East 547 629 38,000  Level Oakland Oceanic (ODAPS)
Fri 12:14:00 PM 43.0000 -150.0000 102° East 540 621 38,000  Level FlightAware Transoceanic
Fri 12:14:28 PM 42.9833 -149.8667 102° East 549 632 38,000 70 Level Oakland Oceanic (ODAPS)
Fri 12:28:20 PM 42.5167 -147.0833 104° East 549 632 39,000 36 Climbing Oakland Oceanic (ODAPS)
Fri 12:42:14 PM 42.0000 -144.3500 106° East 551 634 39,000  Level Oakland Oceanic (ODAPS)
Fri 12:56:04 PM 41.4000 -141.6167 108° East 554 638 39,000  Level Oakland Oceanic (ODAPS)
Fri 01:04:29 PM 41.0000 -140.0000 94° East 566 651 39,000  Level Oakland Oceanic (ODAPS)
Fri 01:09:55 PM 40.9333 -138.8667 95° East 566 651 39,000  Level Oakland Oceanic (ODAPS)
Fri 01:23:56 PM 40.7167 -136.0167 97° East 573 659 39,000  Level Oakland Oceanic (ODAPS)
Fri 01:37:40 PM 40.4167 -133.1833 99° East 563 648 39,000  Level Oakland Oceanic (ODAPS)
Fri 01:51:31 PM 40.0667 -130.4167 102° East 559 643 39,000  Level Oakland Oceanic (ODAPS)
Fri 01:53:38 PM 40.0000 -130.0000 89° East 566 651 39,000  Level Oakland Oceanic (ODAPS)
Fri 02:05:19 PM 40.0167 -127.6000 92° East 565 650 39,000  Level Oakland Oceanic (ODAPS)
Fri 02:06:00 PM 40.0045 -127.3999 91° East 566 651 39,000 -78 Level FlightAware Transoceanic
Fri 02:06:36 PM 39.9933 -127.3333 92° East 568 654 38,900  Descending Oakland Center
Fri 02:07:00 PM 40.0024 -127.2000 91° East 566 651 39,000 98 Climbing FlightAware Transoceanic
Fri 02:07:37 PM 39.9097 -127.1794 125° Southeast 553 636 39,000  Level Oakland Center
Fri 02:08:00 PM 40.0000 -127.0000 107° East 566 651 39,000  Level FlightAware Transoceanic
Fri 02:08:39 PM 39.8042 -127.0450 136° Southeast 535 616 39,000  Level Oakland Center
Fri 02:09:00 PM 39.9554 -126.8109 107° East 566 651 39,000  Level FlightAware Transoceanic
Fri 02:09:40 PM 39.7194 -126.8856 125° Southeast 539 620 39,000  Level Oakland Center
Fri 02:10:00 PM 39.9104 -126.6221 107° East 566 651 39,000 -97 Level FlightAware Transoceanic
Fri 02:10:42 PM 39.6344 -126.7261 125° Southeast 539 620 38,900 -58 Descending Oakland Center
Fri 02:11:43 PM 39.5511 -126.5672 124° Southeast 538 619 38,900  Level Oakland Center
Fri 02:12:45 PM 39.4678 -126.4103 124° Southeast 537 618 38,900  Level Oakland Center
Fri 02:13:46 PM 39.3642 -126.2192 125° Southeast 537 618 38,900 49 Level Oakland Center
Fri 02:14:47 PM 39.2772 -126.0608 125° Southeast 538 619 39,000 49 Climbing Oakland Center
Fri 02:15:49 PM 39.1861 -125.8900 124° Southeast 539 620 39,000  Level Oakland Center
Fri 02:16:50 PM 39.1061 -125.7447 125° Southeast 539 620 39,000 -49 Level Oakland Center
Fri 02:17:52 PM 39.0189 -125.5878 126° Southeast 539 620 38,900 -49 Descending Oakland Center
Fri 02:18:53 PM 38.9339 -125.4325 125° Southeast 539 620 38,900 49 Level Oakland Center
Fri 02:19:55 PM 38.8483 -125.2775 125° Southeast 538 619 39,000 49 Climbing Oakland Center
Fri 02:20:56 PM 38.7433 -125.0914 126° Southeast 538 619 39,000  Level Oakland Center
Fri 02:21:58 PM 38.6569 -124.9375 126° Southeast 537 618 39,000  Level Oakland Center
Fri 02:22:59 PM 38.5806 -124.8000 125° Southeast 537 618 39,000  Level Oakland Center
Fri 02:24:01 PM 38.4758 -124.6139 126° Southeast 537 618 39,000 -49 Level Oakland Center
Fri 02:25:02 PM 38.3856 -124.4597 127° Southeast 540 621 38,900  Descending Oakland Center
Fri 02:26:04 PM 38.3000 -124.3067 125° Southeast 535 616 39,000 48 Climbing Oakland Center
Fri 02:27:06 PM 38.2128 -124.1547 126° Southeast 535 616 39,000  Level Oakland Center
Fri 02:28:07 PM 38.1233 -124.0022 127° Southeast 536 617 39,000  Level Oakland Center
Fri 02:29:09 PM 38.0336 -123.8500 127° Southeast 538 619 39,000  Level Oakland Center
Fri 02:30:10 PM 37.9456 -123.6972 126° Southeast 539 620 39,000 -49 Level Oakland Center
Fri 02:31:12 PM 37.8392 -123.5147 126° Southeast 539 620 38,900  Descending Oakland Center
Fri 02:32:13 PM 37.7497 -123.3617 126° Southeast 541 623 39,000  Climbing Oakland Center
Fri 02:33:15 PM 37.6594 -123.2108 127° Southeast 542 624 38,900  Descending Oakland Center
Fri 02:39:01 PM 37.1412 -122.3490 127° Southeast 537 618 39,000 16 Climbing FlightAware ADS-B
Fri 02:39:31 PM 37.0839 -122.2550 127° Southeast 539 620 39,000  Level FlightAware ADS-B
Fri 02:40:19 PM 37.0072 -122.1290 127° Southeast 539 620 39,000  Level FlightAware ADS-B
Fri 02:40:50 PM 36.9676 -122.0650 127° Southeast 539 620 39,000  Level FlightAware ADS-B
Fri 02:41:22 PM 36.9142 -121.9780 127° Southeast 539 620 39,000  Level FlightAware ADS-B
Fri 02:42:18 PM 36.8337 -121.8470 128° Southeast 540 621 39,000  Level FlightAware ADS-B
Fri 02:42:50 PM 36.7797 -121.7600 128° Southeast 540 621 39,000  Level FlightAware ADS-B
Fri 02:43:40 PM 36.7054 -121.6400 128° Southeast 540 621 39,000  Level FlightAware ADS-B
Fri 02:44:31 PM 36.6298 -121.5190 128° Southeast 538 619 39,000  Level FlightAware ADS-B
Fri 02:45:09 PM 36.5713 -121.4250 128° Southeast 537 618 39,000  Level FlightAware ADS-B
Fri 02:46:30 PM 36.4484 -121.2290 128° Southeast 538 619 39,000 -46 Level FlightAware ADS-B
Fri 02:47:19 PM 36.3814 -121.1267 128° Southeast 543 625 38,900  Descending Los Angeles Center
Fri 02:48:21 PM 36.2900 -120.9781 127° Southeast 543 625 39,000 48 Climbing Los Angeles Center
Fri 02:49:23 PM 36.1961 -120.8344 129° Southeast 538 619 39,000  Level Los Angeles Center
Fri 02:50:25 PM 36.1033 -120.6881 128° Southeast 539 620 39,000  Level Los Angeles Center
Fri 02:51:27 PM 35.9914 -120.5125 128° Southeast 541 623 39,000  Level Los Angeles Center
Fri 02:52:29 PM 35.8967 -120.3664 129° Southeast 543 625 39,000  Level Los Angeles Center
Fri 02:53:31 PM 35.8017 -120.2200 129° Southeast 544 626 39,000  Level Los Angeles Center
Fri 02:54:34 PM 35.7092 -120.0739 128° Southeast 544 626 39,000  Level Los Angeles Center
Fri 02:55:36 PM 35.6039 -119.9439 135° Southeast 535 616 39,000 -387 Level Los Angeles Center
Fri 02:56:38 PM 35.4853 -119.8394 144° Southeast 526 605 38,200 -1,790 Descending Los Angeles Center
Fri 02:57:40 PM 35.3453 -119.7181 145° Southeast 515 593 35,300 -2,806 Descending Los Angeles Center
Fri 02:58:42 PM 35.2286 -119.6183 145° Southeast 513 590 32,400 -3,048 Descending Los Angeles Center
Fri 02:59:44 PM 35.1083 -119.5150 145° Southeast 522 601 29,000 -2,976 Descending Los Angeles Center
Fri 03:00:47 PM 34.9856 -119.4103 145° Southeast 532 612 26,200 -2,496 Descending Los Angeles Center
Fri 03:01:49 PM 34.8692 -119.3108 145° Southeast 516 594 23,800 -2,468 Descending Los Angeles Center
Fri 03:02:51 PM 34.7442 -119.2078 146° Southeast 497 572 21,100 -2,468 Descending Los Angeles Center
Fri 03:03:53 PM 34.6353 -119.1147 145° Southeast 484 557 18,700 -2,323 Descending Los Angeles Center
Fri 03:04:55 PM 34.5283 -119.0264 146° Southeast 462 532 16,300 -2,565 Descending Los Angeles Center
Fri 03:05:57 PM 34.4058 -118.9206 145° Southeast 445 512 13,400 -1,728 Descending Los Angeles Center
Fri 03:07:00 PM 34.3036 -118.8639 155° Southeast 401 461 12,700 -576 Descending Los Angeles Center
Fri 03:08:02 PM 34.2086 -118.8275 162° South 355 409 12,200 -629 Descending Los Angeles Center
Fri 03:09:04 PM 34.1242 -118.7964 163° South 320 368 11,400 -1,016 Descending Los Angeles Center
Fri 03:10:06 PM 34.0392 -118.7422 152° Southeast 302 348 10,100 -774 Descending Los Angeles Center
Fri 03:11:08 PM 34.0269 -118.6386 98° East 311 358 9,800 -629 Descending Los Angeles Center
Fri 03:12:10 PM 34.0175 -118.5403 97° East 299 344 8,800 -1,076 Descending Los Angeles Center
Fri 03:17:44 PM 33.9525 -118.2329 263° West 167 192 2,700 -1,062 Descending FlightAware ADS-B
Fri 03:18:23 PM 33.9503 -118.2656 263° West 180 207 2,200 -882 Descending Los Angeles Center
Fri 03:19:26 PM 33.9453 -118.3153 263° West 163 188 1,200 -816 Descending Los Angeles Center
Fri 03:20:28 PM 33.9408 -118.3617 263° West 150 173 500 -484 Descending Los Angeles Center
Fri 03:21:30 PM 33.9364 -118.4042 263° West 146 168 200 -290 Descending Los Angeles Center

Login

Don't have an account? Register now (free) for customized features, flight alerts, and more!